Terminal Aerodrome Forecast
Issued by NWS

Home | Current Version | Previous Version | Text Only | Print | Product List | Glossary On
Versions: 1 2 3 4 5 6 7 8 9 10 11 12 13 14 15 16 17 18 19 20
000
FTUS43 KILX 062207 AAA
TAFCMI
TAF AMD
KCMI 062207Z 0622/0718 20014KT P6SM SCT035 BKN250
     FM070100 20012KT P6SM VCSH SCT040 BKN250
     FM070400 19011KT P6SM VCTS SCT050CB BKN250
     FM070700 20010KT P6SM VCTS BKN040CB
     FM071000 22009KT 4SM BR VCSH OVC025
     FM071400 01009KT 6SM BR VCSH BKN025=

USA.gov is the U.S. government's official web portal to all federal, state and local government web resources and services.